Nearby METAR Reports

 

KDEN - Denver, Colorado, Denver International Airport, USA
Distance from station: W 194mi, 312.4km
Updated: Mon, 27-Jun-2022 9:53pm CDT
Mostly cloudy
Mostly cloudy
 Wind from NNW
Wind: NNW 10 mph , 17 km/h
Temperature: 75°F , 24°C
Dew Point: 34°F , 1°C
Humidity: 22%
Barometer: 30.29 inHg , 1025.7 hPa
Clouds: Mostly cloudy
Visibility: 10 miles , 16 km
Cloud details: Few Clouds 10000 ft
Mostly cloudy 16000 ft
Mostly cloudy 22000 ft
2022/06/28 02:53 KDEN 280253Z 34009KT 10SM FEW100 BKN160 BKN220 24/01 A3029 RMK AO2 SLP180 VIRGA W T02440006 53015